createdAt,value
2023-02-19T00:02:15.465Z,2.34
2023-02-19T00:09:29.446Z,2.38
2023-02-19T00:12:36.653Z,2.41
2023-02-19T00:16:02.442Z,2.40
2023-02-19T00:19:42.184Z,2.38
2023-02-19T00:43:41.973Z,2.42
2023-02-19T01:53:47.333Z,2.20
2023-02-19T02:00:35.326Z,2.14
2023-02-19T02:03:51.896Z,2.12
2023-02-19T02:07:44.130Z,2.09
2023-02-19T02:17:35.138Z,2.02
2023-02-19T02:21:15.220Z,1.98
2023-02-19T02:24:55.810Z,1.97
2023-02-19T02:32:53.107Z,2.03
2023-02-19T02:43:26.244Z,2.06
2023-02-19T02:52:22.354Z,2.08
2023-02-19T02:56:15.104Z,2.10
2023-02-19T03:02:55.999Z,2.15
2023-02-19T03:06:35.150Z,2.15
2023-02-19T03:10:29.984Z,2.18
2023-02-19T03:13:54.103Z,2.21
2023-02-19T03:17:47.972Z,2.26
2023-02-19T03:21:26.066Z,2.27
2023-02-19T03:24:35.328Z,2.23
2023-02-19T03:28:37.098Z,2.20
2023-02-19T03:31:39.301Z,2.17
2023-02-19T03:34:50.094Z,2.14
2023-02-19T03:50:53.890Z,2.12
2023-02-19T03:55:03.199Z,2.14
2023-02-19T04:05:25.046Z,2.20
2023-02-19T04:08:16.668Z,2.25
2023-02-19T04:11:25.216Z,2.25
2023-02-19T04:15:45.065Z,2.22
2023-02-19T04:22:00.907Z,2.22
2023-02-19T04:29:36.666Z,2.23
2023-02-19T04:32:41.900Z,2.23
2023-02-19T04:36:23.724Z,2.25
2023-02-19T04:39:21.271Z,2.25
2023-02-19T04:42:42.819Z,2.26
2023-02-19T04:55:17.989Z,2.27
2023-02-19T05:07:58.996Z,2.28
2023-02-19T05:11:33.878Z,2.28
2023-02-19T05:15:23.251Z,2.29
2023-02-19T05:18:37.429Z,2.28
2023-02-19T05:25:09.792Z,2.24
2023-02-19T05:31:08.290Z,2.20
2023-02-19T05:34:20.056Z,2.19
2023-02-19T05:40:55.048Z,2.13
2023-02-19T05:44:41.209Z,2.08
2023-02-19T05:48:17.696Z,2.06
2023-02-19T05:52:02.578Z,2.05
2023-02-19T05:58:51.740Z,2.03
2023-02-19T07:40:33.218Z,2.82
2023-02-19T07:44:03.019Z,2.81
2023-02-19T07:47:43.126Z,2.81
2023-02-19T07:51:18.388Z,2.87
2023-02-19T07:54:51.879Z,3.03
2023-02-19T07:58:23.002Z,3.28
2023-02-19T08:20:47.385Z,4.30
2023-02-19T08:28:21.172Z,5.35
2023-02-19T08:31:51.659Z,5.80
2023-02-19T08:35:23.682Z,5.72
2023-02-19T08:50:36.740Z,5.78
2023-02-19T08:54:16.242Z,6.38
2023-02-19T08:57:58.418Z,6.19
2023-02-19T09:01:33.595Z,5.75
2023-02-19T09:24:04.224Z,5.32
2023-02-19T09:27:36.614Z,5.34
2023-02-19T09:31:07.305Z,6.40
2023-02-19T09:34:49.187Z,6.09
2023-02-19T10:07:45.379Z,5.51
2023-02-19T10:11:23.872Z,5.71
2023-02-19T10:18:44.253Z,6.07
2023-02-19T10:26:35.466Z,5.77
2023-02-19T10:34:34.661Z,5.89
2023-02-19T10:37:38.936Z,5.86
2023-02-19T10:41:00.769Z,5.77
2023-02-19T10:44:27.471Z,5.90
2023-02-19T10:47:36.010Z,6.26
2023-02-19T10:54:38.604Z,6.66
2023-02-19T10:57:41.702Z,6.72
2023-02-19T11:01:50.340Z,6.86
2023-02-19T11:13:08.897Z,6.75
2023-02-19T13:00:54.081Z,6.81
2023-02-19T13:04:37.871Z,6.58
2023-02-19T13:15:45.629Z,6.41
2023-02-19T13:34:44.174Z,6.02
2023-02-19T13:38:27.770Z,5.87
2023-02-19T13:42:06.086Z,5.82
2023-02-19T14:11:55.408Z,5.37
2023-02-19T14:15:28.054Z,5.28
2023-02-19T14:18:56.918Z,5.24
2023-02-19T14:22:27.845Z,5.30
2023-02-19T14:49:19.779Z,5.03
2023-02-19T14:52:57.484Z,5.00
2023-02-19T14:56:41.556Z,5.02
2023-02-19T15:00:13.797Z,5.03
2023-02-19T15:03:44.147Z,5.06
2023-02-19T15:18:49.294Z,4.76
2023-02-19T15:22:37.478Z,4.59
2023-02-19T15:26:22.112Z,4.39
2023-02-19T15:56:11.779Z,3.91
2023-02-19T15:59:52.063Z,3.77
2023-02-19T16:03:21.990Z,3.67
2023-02-19T16:07:00.995Z,3.53
2023-02-19T16:10:35.354Z,3.39
2023-02-19T16:14:08.705Z,3.25
2023-02-19T16:17:42.272Z,3.13
2023-02-19T16:21:24.030Z,3.00
2023-02-19T17:00:37.556Z,1.89
2023-02-19T17:30:21.117Z,1.51
2023-02-19T17:34:09.583Z,1.46
2023-02-19T17:37:43.145Z,1.37
2023-02-19T17:41:25.417Z,1.30
2023-02-19T17:45:00.116Z,1.24
2023-02-19T17:48:33.107Z,1.19
2023-02-19T17:52:18.661Z,1.14
2023-02-19T17:55:51.138Z,1.10
2023-02-19T17:59:26.333Z,1.08
2023-02-19T18:03:05.982Z,1.06
2023-02-19T18:07:18.091Z,1.04
2023-02-19T18:11:01.861Z,0.98
2023-02-19T18:14:51.345Z,0.91
2023-02-19T18:18:27.464Z,0.84
2023-02-19T18:22:06.301Z,0.77
2023-02-19T18:26:03.905Z,0.68
2023-02-19T18:29:52.244Z,0.60
2023-02-19T18:33:00.674Z,0.55
2023-02-19T18:36:46.912Z,0.54
2023-02-19T18:40:40.427Z,0.53
2023-02-19T18:44:24.811Z,0.52
2023-02-19T18:48:09.704Z,0.50
2023-02-19T18:52:12.901Z,0.47
2023-02-19T18:55:59.464Z,0.45
2023-02-19T18:59:43.194Z,0.40
2023-02-19T19:03:27.996Z,0.34
2023-02-19T19:07:05.475Z,0.30
2023-02-19T19:10:40.546Z,0.28
2023-02-19T19:17:44.067Z,0.28
2023-02-19T19:25:27.146Z,0.23
2023-02-19T19:29:15.837Z,0.18
2023-02-19T19:47:15.266Z,-0.02
2023-02-19T19:54:56.465Z,-0.08
2023-02-19T20:06:39.320Z,-0.13
2023-02-19T20:10:22.757Z,-0.13
2023-02-19T20:13:56.369Z,-0.13
2023-02-19T20:17:30.474Z,-0.15
2023-02-19T20:54:24.071Z,-0.43
2023-02-19T20:57:56.244Z,-0.45
2023-02-19T21:30:13.829Z,-0.43
2023-02-19T21:33:51.217Z,-0.41
2023-02-19T21:37:22.862Z,-0.38
2023-02-19T21:40:56.856Z,-0.37
2023-02-19T22:09:54.774Z,-0.16
2023-02-19T22:13:22.808Z,-0.17
2023-02-19T22:16:53.838Z,-0.14
2023-02-19T22:52:49.323Z,-0.25
2023-02-19T22:56:40.195Z,-0.29
2023-02-19T23:00:21.917Z,-0.33
2023-02-19T23:04:00.354Z,-0.34
2023-02-19T23:07:30.549Z,-0.35
2023-02-19T23:33:17.381Z,-0.49
2023-02-19T23:36:46.061Z,-0.51
2023-02-19T23:40:25.015Z,-0.53
